createdAt,value
2019-01-21T00:00:42.641Z,69.20
2019-01-21T00:02:46.329Z,70.60
2019-01-21T00:04:49.995Z,72.30
2019-01-21T00:06:53.654Z,73.20
2019-01-21T00:08:57.447Z,72.80
2019-01-21T00:11:01.122Z,72.20
2019-01-21T00:13:05.301Z,72.20
2019-01-21T00:15:09.469Z,72.20
2019-01-21T00:17:13.113Z,72.50
2019-01-21T00:19:16.810Z,72.00
2019-01-21T00:21:20.465Z,71.10
2019-01-21T00:23:24.186Z,71.00
2019-01-21T00:25:27.895Z,70.60
2019-01-21T00:27:31.558Z,70.50
2019-01-21T00:29:35.246Z,70.10
2019-01-21T00:31:38.925Z,70.10
2019-01-21T00:33:42.611Z,70.80
2019-01-21T00:35:46.324Z,70.30
2019-01-21T00:37:50.016Z,70.70
2019-01-21T00:39:53.767Z,70.60
2019-01-21T00:41:57.426Z,69.80
2019-01-21T00:44:01.113Z,69.40
2019-01-21T00:46:04.883Z,69.20
2019-01-21T00:48:08.547Z,69.00
2019-01-21T00:50:13.755Z,69.70
2019-01-21T00:52:17.409Z,69.80
2019-01-21T00:54:21.092Z,69.80
2019-01-21T00:56:24.764Z,69.40
2019-01-21T00:58:28.418Z,70.10
2019-01-21T01:00:32.118Z,69.80
2019-01-21T01:02:35.863Z,69.80
2019-01-21T01:04:39.551Z,70.20
2019-01-21T01:06:43.325Z,70.80
2019-01-21T01:08:47.019Z,70.70
2019-01-21T01:10:50.775Z,70.10
2019-01-21T01:12:54.431Z,70.00
2019-01-21T01:14:58.112Z,69.30
2019-01-21T01:17:01.777Z,68.80
2019-01-21T01:19:05.443Z,69.50
2019-01-21T01:21:09.189Z,68.90
2019-01-21T01:23:12.882Z,68.60
2019-01-21T01:25:16.547Z,68.60
2019-01-21T01:27:20.236Z,68.80
2019-01-21T01:29:23.898Z,68.90
2019-01-21T01:31:27.590Z,69.20
2019-01-21T01:33:31.288Z,69.80
2019-01-21T01:35:34.943Z,70.00
2019-01-21T01:37:38.630Z,70.00
2019-01-21T01:39:42.296Z,69.80
2019-01-21T01:41:45.993Z,69.70
2019-01-21T01:43:49.862Z,69.20
2019-01-21T01:45:53.592Z,69.20
2019-01-21T01:47:59.421Z,69.20
2019-01-21T01:50:04.089Z,68.80
2019-01-21T01:52:07.795Z,68.50
2019-01-21T01:54:12.050Z,68.00
2019-01-21T01:56:15.790Z,68.30
2019-01-21T01:58:19.523Z,68.10
2019-01-21T02:00:23.282Z,68.20
2019-01-21T02:02:26.975Z,68.80
2019-01-21T02:04:30.638Z,69.00
2019-01-21T02:06:34.314Z,69.20
2019-01-21T02:08:37.983Z,70.10
2019-01-21T02:10:41.635Z,70.10
2019-01-21T02:12:45.330Z,69.20
2019-01-21T02:14:49.003Z,70.30
2019-01-21T02:16:53.030Z,72.40
2019-01-21T02:18:56.735Z,72.00
2019-01-21T02:21:03.398Z,71.00
2019-01-21T02:23:07.092Z,71.60
2019-01-21T02:25:11.071Z,71.40
2019-01-21T02:27:15.858Z,71.10
2019-01-21T02:29:22.846Z,70.60
2019-01-21T02:32:03.767Z,70.70
2019-01-21T02:34:16.351Z,70.10
2019-01-21T02:36:40.891Z,69.50
2019-01-21T02:38:56.315Z,71.10
2019-01-21T02:41:02.918Z,70.60
2019-01-21T02:43:18.408Z,70.10
2019-01-21T02:45:36.866Z,70.10
2019-01-21T02:47:49.446Z,70.00
2019-01-21T02:49:56.069Z,70.30
2019-01-21T02:52:20.806Z,71.00
2019-01-21T02:54:35.920Z,70.30
2019-01-21T02:56:54.478Z,70.30
2019-01-21T02:59:21.965Z,70.20
2019-01-21T03:01:40.714Z,70.60
2019-01-21T03:03:55.895Z,70.20
2019-01-21T03:06:11.495Z,70.00
2019-01-21T03:08:26.210Z,70.60
2019-01-21T03:10:48.012Z,70.50
2019-01-21T03:13:19.834Z,70.50
2019-01-21T03:15:41.150Z,70.10
2019-01-21T03:18:10.394Z,70.40
2019-01-21T03:20:19.943Z,70.50
2019-01-21T03:22:44.273Z,71.10
2019-01-21T03:24:54.051Z,71.70
2019-01-21T03:27:15.676Z,71.60
2019-01-21T03:29:24.991Z,70.70
2019-01-21T03:31:43.354Z,70.80
2019-01-21T03:33:56.150Z,70.70
2019-01-21T03:36:05.460Z,70.40
2019-01-21T03:38:17.575Z,69.90
2019-01-21T03:40:39.417Z,70.00
2019-01-21T03:42:48.833Z,69.40
2019-01-21T03:45:13.502Z,69.50
2019-01-21T03:47:22.943Z,68.90
2019-01-21T03:49:32.692Z,69.20
2019-01-21T03:52:05.028Z,69.30
2019-01-21T03:54:14.516Z,69.60
2019-01-21T03:56:21.492Z,70.40
2019-01-21T03:58:49.012Z,70.10
2019-01-21T04:00:58.204Z,69.90
2019-01-21T04:03:04.836Z,69.50
2019-01-21T04:05:16.831Z,69.50
2019-01-21T04:07:26.283Z,69.50
2019-01-21T04:09:41.681Z,69.00
2019-01-21T04:11:56.732Z,69.60
2019-01-21T04:14:22.946Z,69.40
2019-01-21T04:16:38.577Z,70.50
2019-01-21T04:18:50.670Z,71.40
2019-01-21T04:21:12.298Z,71.40
2019-01-21T04:23:24.392Z,71.70
2019-01-21T04:25:33.818Z,71.60
2019-01-21T04:27:40.426Z,71.60
2019-01-21T04:30:14.028Z,71.50
2019-01-21T04:32:23.085Z,71.60
2019-01-21T04:34:41.226Z,70.80
2019-01-21T04:36:47.843Z,70.50
2019-01-21T04:38:54.494Z,70.90
2019-01-21T04:41:15.706Z,70.80
2019-01-21T04:43:34.070Z,70.70
2019-01-21T04:45:52.818Z,70.10
2019-01-21T04:48:17.518Z,71.30
2019-01-21T04:50:40.898Z,71.40
2019-01-21T04:53:22.688Z,71.20
2019-01-21T04:55:57.162Z,70.90
2019-01-21T04:58:22.726Z,73.10
2019-01-21T05:00:40.931Z,73.40
2019-01-21T05:02:53.400Z,73.00
2019-01-21T05:05:19.818Z,71.90
2019-01-21T05:07:29.218Z,71.40
2019-01-21T05:09:41.564Z,71.50
2019-01-21T05:12:09.111Z,71.20
2019-01-21T05:14:35.239Z,71.00
2019-01-21T05:16:47.819Z,71.00
2019-01-21T05:19:09.099Z,70.60
2019-01-21T05:21:24.636Z,70.50
2019-01-21T05:23:33.806Z,71.30
2019-01-21T05:25:45.852Z,70.30
2019-01-21T05:27:58.488Z,70.10
2019-01-21T05:30:05.167Z,70.10
2019-01-21T05:32:11.810Z,70.70
2019-01-21T05:34:23.951Z,70.70
2019-01-21T05:36:30.731Z,70.40
2019-01-21T05:38:43.448Z,69.80
2019-01-21T05:40:52.884Z,69.80
2019-01-21T05:43:23.865Z,69.70
2019-01-21T05:45:54.013Z,69.80
2019-01-21T05:48:29.056Z,69.80
2019-01-21T05:50:47.495Z,69.30
2019-01-21T05:53:27.366Z,69.50
2019-01-21T05:55:33.966Z,70.30
2019-01-21T05:57:49.097Z,70.00
2019-01-21T05:59:58.327Z,69.90
2019-01-21T06:02:26.330Z,69.50
2019-01-21T06:04:38.454Z,69.40
2019-01-21T06:06:45.073Z,69.70
2019-01-21T06:09:13.869Z,69.30
2019-01-21T06:11:35.538Z,69.10
2019-01-21T06:13:44.805Z,69.00
2019-01-21T06:16:06.085Z,69.00
2019-01-21T06:18:12.693Z,69.60
2019-01-21T06:20:28.247Z,69.40
2019-01-21T06:22:51.410Z,70.40
2019-01-21T06:25:07.007Z,70.30
2019-01-21T06:27:19.338Z,70.50
2019-01-21T06:29:31.740Z,70.50
2019-01-21T06:32:07.217Z,70.80
2019-01-21T06:34:16.435Z,71.10
2019-01-21T06:36:28.642Z,70.90
2019-01-21T06:38:43.607Z,70.50
2019-01-21T06:41:07.023Z,70.40
2019-01-21T06:43:28.819Z,69.60
2019-01-21T06:45:47.403Z,71.50
2019-01-21T06:48:21.273Z,72.20
2019-01-21T06:50:37.002Z,72.10
2019-01-21T06:53:07.679Z,74.40
2019-01-21T06:55:42.870Z,74.50
2019-01-21T06:58:09.124Z,73.60
2019-01-21T07:00:39.946Z,73.20
2019-01-21T07:03:21.125Z,73.30
2019-01-21T07:05:30.540Z,73.40
2019-01-21T07:07:43.196Z,72.70
2019-01-21T07:09:52.644Z,72.50
2019-01-21T07:11:59.291Z,71.70
2019-01-21T07:14:23.822Z,71.20
2019-01-21T07:16:35.471Z,70.50
2019-01-21T07:18:58.338Z,70.00
2019-01-21T07:21:11.010Z,70.10
2019-01-21T07:23:32.671Z,70.20
2019-01-21T07:25:54.112Z,70.50
2019-01-21T07:28:18.807Z,70.80
2019-01-21T07:30:48.087Z,70.80
2019-01-21T07:33:12.489Z,71.10
2019-01-21T07:35:19.099Z,70.70
2019-01-21T07:37:43.343Z,70.70
2019-01-21T07:40:04.534Z,70.80
2019-01-21T07:42:29.311Z,71.00
2019-01-21T07:44:44.572Z,71.50
2019-01-21T07:47:03.230Z,71.20
2019-01-21T07:49:29.312Z,71.20
2019-01-21T07:51:41.577Z,72.00
2019-01-21T07:53:50.904Z,72.00
2019-01-21T07:56:00.346Z,72.00
2019-01-21T07:58:12.886Z,71.20
2019-01-21T08:00:43.199Z,70.50
2019-01-21T08:02:58.755Z,70.40
2019-01-21T08:05:16.792Z,70.40
2019-01-21T08:07:26.294Z,71.90
2019-01-21T08:09:44.657Z,71.60
2019-01-21T08:11:51.255Z,70.90
2019-01-21T08:14:09.674Z,70.90
2019-01-21T08:16:25.253Z,70.90
2019-01-21T08:19:07.217Z,71.00
2019-01-21T08:21:43.783Z,71.20
2019-01-21T08:24:15.661Z,71.10
2019-01-21T08:26:34.244Z,72.00
2019-01-21T08:29:01.280Z,73.80
2019-01-21T08:31:07.931Z,73.80
2019-01-21T08:33:32.256Z,73.90
2019-01-21T08:35:44.427Z,74.30
2019-01-21T08:38:07.167Z,73.00
2019-01-21T08:40:19.542Z,72.30
2019-01-21T08:42:31.646Z,74.00
2019-01-21T08:44:52.749Z,73.30
2019-01-21T08:47:05.187Z,72.10
2019-01-21T08:49:14.490Z,71.20
2019-01-21T08:51:43.344Z,71.10
2019-01-21T08:54:05.156Z,71.10
2019-01-21T08:56:23.739Z,71.10
2019-01-21T08:58:51.123Z,70.90
2019-01-21T09:01:03.863Z,70.70
2019-01-21T09:03:14.458Z,70.20
2019-01-21T09:05:24.738Z,71.10
2019-01-21T09:07:52.010Z,71.40
2019-01-21T09:10:01.239Z,70.90
2019-01-21T09:12:35.258Z,71.00
2019-01-21T09:14:56.975Z,70.00
2019-01-21T09:17:34.039Z,69.90
2019-01-21T09:19:58.173Z,70.00
2019-01-21T09:22:10.467Z,69.80
2019-01-21T09:24:19.983Z,69.90
2019-01-21T09:26:44.810Z,70.20
2019-01-21T09:29:08.662Z,70.10
2019-01-21T09:31:23.664Z,69.40
2019-01-21T09:33:54.280Z,69.60
2019-01-21T09:36:09.551Z,69.10
2019-01-21T09:38:21.771Z,69.10
2019-01-21T09:40:31.194Z,69.00
2019-01-21T09:42:52.727Z,68.80
2019-01-21T09:45:11.385Z,68.80
2019-01-21T09:47:13.837Z,69.10
2019-01-21T09:49:16.325Z,69.70
2019-01-21T09:51:20.586Z,69.20
2019-01-21T09:53:24.278Z,69.20
2019-01-21T09:55:28.600Z,69.30
2019-01-21T09:57:33.466Z,69.40
2019-01-21T09:59:37.214Z,69.20
2019-01-21T10:01:40.873Z,68.80
2019-01-21T10:03:45.159Z,69.20
2019-01-21T10:05:51.826Z,68.90
2019-01-21T10:07:58.431Z,68.80
2019-01-21T10:10:19.631Z,69.40
2019-01-21T10:12:40.786Z,69.80
2019-01-21T10:14:56.497Z,70.00
2019-01-21T10:17:06.083Z,69.90
2019-01-21T10:19:23.751Z,70.00
2019-01-21T10:21:39.205Z,69.70
2019-01-21T10:23:51.929Z,69.70
2019-01-21T10:26:10.571Z,70.00
2019-01-21T10:28:19.986Z,70.00
2019-01-21T10:30:32.528Z,69.90
2019-01-21T10:33:02.092Z,70.10
2019-01-21T10:35:26.748Z,70.70
2019-01-21T10:37:54.738Z,70.70
2019-01-21T10:40:07.822Z,70.60
2019-01-21T10:42:27.796Z,71.00
2019-01-21T10:44:40.578Z,69.60
2019-01-21T10:47:12.539Z,69.50
2019-01-21T10:49:49.794Z,69.40
2019-01-21T10:52:14.406Z,69.90
2019-01-21T10:54:21.018Z,70.10
2019-01-21T10:56:48.558Z,71.50
2019-01-21T10:58:55.214Z,73.40
2019-01-21T11:01:18.566Z,74.70
2019-01-21T11:03:25.216Z,74.50
2019-01-21T11:05:57.172Z,74.40
2019-01-21T11:08:21.986Z,74.30
2019-01-21T11:10:40.794Z,74.10
2019-01-21T11:12:56.463Z,75.20
2019-01-21T11:15:20.922Z,74.90
2019-01-21T11:17:30.161Z,74.50
2019-01-21T11:19:54.995Z,73.20
2019-01-21T11:22:01.590Z,71.80
2019-01-21T11:24:28.626Z,71.80
2019-01-21T11:26:50.116Z,71.20
2019-01-21T11:29:22.407Z,70.90
2019-01-21T11:31:40.964Z,70.40
2019-01-21T11:33:53.814Z,70.30
2019-01-21T11:36:21.143Z,70.10
2019-01-21T11:38:33.818Z,69.70
2019-01-21T11:40:41.668Z,71.00
2019-01-21T11:43:11.700Z,70.60
2019-01-21T11:45:35.184Z,70.50
2019-01-21T11:47:50.399Z,70.00
2019-01-21T11:50:03.042Z,69.40
2019-01-21T11:52:18.663Z,69.00
2019-01-21T11:54:39.978Z,68.80
2019-01-21T11:56:52.259Z,69.00
2019-01-21T11:59:01.746Z,69.30
2019-01-21T12:01:17.038Z,69.60
2019-01-21T12:03:29.596Z,70.00
2019-01-21T12:05:36.250Z,69.70
2019-01-21T12:07:45.352Z,70.30
2019-01-21T12:10:08.213Z,70.20
2019-01-21T12:12:14.825Z,70.60
2019-01-21T12:14:24.362Z,70.20
2019-01-21T12:16:45.706Z,69.80
2019-01-21T12:19:13.199Z,69.20
2019-01-21T12:21:22.668Z,69.40
2019-01-21T12:23:34.811Z,69.40
2019-01-21T12:25:44.366Z,69.00
2019-01-21T12:28:16.312Z,69.40
2019-01-21T12:30:37.536Z,70.20
2019-01-21T12:33:11.074Z,69.70
2019-01-21T12:35:35.680Z,69.80
2019-01-21T12:37:47.618Z,70.90
2019-01-21T12:39:59.479Z,71.10
2019-01-21T12:42:24.097Z,70.70
2019-01-21T12:44:39.661Z,70.30
2019-01-21T12:46:48.781Z,70.30
2019-01-21T12:48:55.406Z,69.80
2019-01-21T12:51:22.694Z,69.30
2019-01-21T12:53:38.369Z,69.60
2019-01-21T12:55:53.940Z,69.80
2019-01-21T12:58:09.577Z,70.30
2019-01-21T13:00:19.158Z,70.20
2019-01-21T13:02:28.730Z,69.50
2019-01-21T13:04:35.357Z,70.50
2019-01-21T13:07:03.151Z,70.50
2019-01-21T13:09:12.685Z,69.80
2019-01-21T13:11:24.835Z,69.30
2019-01-21T13:13:39.910Z,69.10
2019-01-21T13:15:52.418Z,69.30
2019-01-21T13:18:18.506Z,70.40
2019-01-21T13:20:30.541Z,70.20
2019-01-21T13:22:42.537Z,69.80
2019-01-21T13:25:01.268Z,69.30
2019-01-21T13:27:07.926Z,69.50
2019-01-21T13:29:17.000Z,69.80
2019-01-21T13:31:49.038Z,70.00
2019-01-21T13:34:01.670Z,69.80
2019-01-21T13:36:23.671Z,69.20
2019-01-21T13:38:35.788Z,70.40
2019-01-21T13:40:53.939Z,71.30
2019-01-21T13:43:25.936Z,71.20
2019-01-21T13:45:55.487Z,71.60
2019-01-21T13:48:02.099Z,73.20
2019-01-21T13:50:26.766Z,73.10
2019-01-21T13:52:51.054Z,73.20
2019-01-21T13:55:00.275Z,71.80
2019-01-21T13:57:06.918Z,71.00
2019-01-21T13:59:28.152Z,70.10
2019-01-21T14:01:40.760Z,69.60
2019-01-21T14:03:50.171Z,70.50
2019-01-21T14:06:08.389Z,71.90
2019-01-21T14:08:30.331Z,72.20
2019-01-21T14:10:42.833Z,71.60
2019-01-21T14:12:49.473Z,71.10
2019-01-21T14:15:13.667Z,72.10
2019-01-21T14:17:34.961Z,72.50
2019-01-21T14:19:53.710Z,72.20
2019-01-21T14:22:15.386Z,71.10
2019-01-21T14:24:31.217Z,70.50
2019-01-21T14:26:46.905Z,70.40
2019-01-21T14:28:56.374Z,70.20
2019-01-21T14:31:22.217Z,70.50
2019-01-21T14:33:37.819Z,70.70
2019-01-21T14:35:47.243Z,70.40
2019-01-21T14:37:59.577Z,70.70
2019-01-21T14:40:08.855Z,70.90
2019-01-21T14:42:30.064Z,70.70
2019-01-21T14:45:00.943Z,70.10
2019-01-21T14:47:19.151Z,71.50
2019-01-21T14:49:49.652Z,73.30
2019-01-21T14:52:12.656Z,72.30
2019-01-21T14:54:31.437Z,71.80
2019-01-21T14:56:47.000Z,71.80
2019-01-21T14:58:56.247Z,71.50
2019-01-21T15:01:02.910Z,71.90
2019-01-21T15:03:12.187Z,72.70
2019-01-21T15:05:40.988Z,73.60
2019-01-21T15:07:50.204Z,73.10
2019-01-21T15:10:16.540Z,72.10
2019-01-21T15:12:34.971Z,72.00
2019-01-21T15:14:44.061Z,72.40
2019-01-21T15:16:59.635Z,73.40
2019-01-21T15:19:12.113Z,73.20
2019-01-21T15:21:24.637Z,73.00
2019-01-21T15:23:43.488Z,72.60
2019-01-21T15:25:56.268Z,72.80
2019-01-21T15:28:25.069Z,73.50
2019-01-21T15:30:52.507Z,73.90
2019-01-21T15:33:19.712Z,74.30
2019-01-21T15:35:38.682Z,75.10
2019-01-21T15:37:48.109Z,75.20
2019-01-21T15:40:11.498Z,75.70
2019-01-21T15:42:23.794Z,76.00
2019-01-21T15:44:30.412Z,76.20
2019-01-21T15:46:45.505Z,76.10
2019-01-21T15:49:11.767Z,74.70
2019-01-21T15:51:42.734Z,73.50
2019-01-21T15:53:54.698Z,72.90
2019-01-21T15:56:04.269Z,72.50
2019-01-21T15:58:19.023Z,72.80
2019-01-21T16:00:44.467Z,73.70
2019-01-21T16:02:54.017Z,73.70
2019-01-21T16:05:03.202Z,73.70
2019-01-21T16:07:27.952Z,73.30
2019-01-21T16:09:51.343Z,73.10
2019-01-21T16:12:17.646Z,72.50
2019-01-21T16:14:24.254Z,72.40
2019-01-21T16:16:30.903Z,72.70
2019-01-21T16:18:37.519Z,73.10
2019-01-21T16:20:58.869Z,73.50
2019-01-21T16:23:14.403Z,73.60
2019-01-21T16:25:21.000Z,72.70
2019-01-21T16:27:55.815Z,72.30
2019-01-21T16:30:08.090Z,72.20
2019-01-21T16:32:11.858Z,72.50
2019-01-21T16:34:24.506Z,72.80
2019-01-21T16:36:54.799Z,73.20
2019-01-21T16:39:04.393Z,72.70
2019-01-21T16:41:26.182Z,73.30
2019-01-21T16:43:29.888Z,73.70
2019-01-21T16:45:33.599Z,74.00
2019-01-21T16:47:37.336Z,73.60
2019-01-21T16:49:41.106Z,73.50
2019-01-21T16:51:44.783Z,73.00
2019-01-21T16:53:48.746Z,72.80
2019-01-21T16:55:52.438Z,72.10
2019-01-21T16:57:56.100Z,72.30
2019-01-21T16:59:59.811Z,72.30
2019-01-21T17:02:03.505Z,72.20
2019-01-21T17:04:07.213Z,72.10
2019-01-21T17:06:10.890Z,71.80
2019-01-21T17:08:14.581Z,71.60
2019-01-21T17:10:18.286Z,71.30
2019-01-21T17:12:21.931Z,71.20
2019-01-21T17:14:25.630Z,71.80
2019-01-21T17:16:29.307Z,71.40
2019-01-21T17:18:32.966Z,72.10
2019-01-21T17:20:36.690Z,71.30
2019-01-21T17:22:40.392Z,71.10
2019-01-21T17:24:44.117Z,71.10
2019-01-21T17:26:48.815Z,70.80
2019-01-21T17:28:52.484Z,70.90
2019-01-21T17:30:56.174Z,71.60
2019-01-21T17:32:59.837Z,71.60
2019-01-21T17:35:03.586Z,73.80
2019-01-21T17:37:07.277Z,74.40
2019-01-21T17:39:10.937Z,74.20
2019-01-21T17:41:14.894Z,73.30
2019-01-21T17:43:18.559Z,74.40
2019-01-21T17:45:22.255Z,76.10
2019-01-21T17:47:25.918Z,75.20
2019-01-21T17:49:29.574Z,73.80
2019-01-21T17:51:34.453Z,73.20
2019-01-21T17:53:38.702Z,71.30
2019-01-21T17:55:42.381Z,71.30
2019-01-21T17:57:46.089Z,71.00
2019-01-21T17:59:49.746Z,70.00
2019-01-21T18:01:53.452Z,69.70
2019-01-21T18:03:57.141Z,69.40
2019-01-21T18:06:00.819Z,69.20
2019-01-21T18:08:04.622Z,68.20
2019-01-21T18:10:11.250Z,68.80
2019-01-21T18:12:14.942Z,69.10
2019-01-21T18:14:18.712Z,70.00
2019-01-21T18:16:22.524Z,69.70
2019-01-21T18:18:26.208Z,69.80
2019-01-21T18:20:29.885Z,69.20
2019-01-21T18:22:34.844Z,69.40
2019-01-21T18:24:38.526Z,69.00
2019-01-21T18:26:42.261Z,68.50
2019-01-21T18:28:45.962Z,68.00
2019-01-21T18:30:49.631Z,67.90
2019-01-21T18:32:53.563Z,67.50
2019-01-21T18:34:57.308Z,68.70
2019-01-21T18:37:01.029Z,68.20
2019-01-21T18:39:07.668Z,68.70
2019-01-21T18:41:11.322Z,69.10
2019-01-21T18:43:17.529Z,68.30
2019-01-21T18:45:28.287Z,68.60
2019-01-21T18:47:32.853Z,69.70
2019-01-21T18:49:36.608Z,70.50
2019-01-21T18:51:46.492Z,69.60
2019-01-21T18:53:45.831Z,69.20
2019-01-21T18:55:49.550Z,68.70
2019-01-21T18:57:55.970Z,68.40
2019-01-21T18:59:58.642Z,68.20
2019-01-21T19:02:02.327Z,67.90
2019-01-21T19:04:06.075Z,67.70
2019-01-21T19:06:09.847Z,67.10
2019-01-21T19:08:13.524Z,68.30
2019-01-21T19:10:18.427Z,70.50
2019-01-21T19:12:22.090Z,70.80
2019-01-21T19:14:25.791Z,70.10
2019-01-21T19:16:29.497Z,68.90
2019-01-21T19:18:33.173Z,68.70
2019-01-21T19:20:36.901Z,67.70
2019-01-21T19:22:40.551Z,67.70
2019-01-21T19:24:44.242Z,67.10
2019-01-21T19:26:47.919Z,67.00
2019-01-21T19:28:51.589Z,67.10
2019-01-21T19:30:55.291Z,66.90
2019-01-21T19:32:58.974Z,66.90
2019-01-21T19:35:02.677Z,66.60
2019-01-21T19:37:06.347Z,66.10
2019-01-21T19:39:10.028Z,66.60
2019-01-21T19:41:13.788Z,66.70
2019-01-21T19:43:17.467Z,66.50
2019-01-21T19:45:21.140Z,66.20
2019-01-21T19:47:24.828Z,65.80
2019-01-21T19:49:28.503Z,66.20
2019-01-21T19:51:32.179Z,66.40
2019-01-21T19:53:35.886Z,66.00
2019-01-21T19:55:40.944Z,66.00
2019-01-21T19:57:44.712Z,65.50
2019-01-21T19:59:48.398Z,65.50
2019-01-21T20:01:52.207Z,65.50
2019-01-21T20:03:55.916Z,65.60
2019-01-21T20:05:59.646Z,66.10
2019-01-21T20:08:03.322Z,65.70
2019-01-21T20:10:18.565Z,66.00
2019-01-21T20:12:22.276Z,66.20
2019-01-21T20:14:25.939Z,65.90
2019-01-21T20:16:29.614Z,66.20
2019-01-21T20:18:33.313Z,66.70
2019-01-21T20:20:39.177Z,67.40
2019-01-21T20:22:42.876Z,67.60
2019-01-21T20:24:46.554Z,67.00
2019-01-21T20:26:50.298Z,67.40
2019-01-21T20:28:53.974Z,68.30
2019-01-21T20:30:57.661Z,69.30
2019-01-21T20:33:01.367Z,69.60
2019-01-21T20:35:06.553Z,70.50
2019-01-21T20:37:10.255Z,71.20
2019-01-21T20:39:13.979Z,71.40
2019-01-21T20:41:17.677Z,71.60
2019-01-21T20:43:21.375Z,71.40
2019-01-21T20:45:25.083Z,71.60
2019-01-21T20:47:28.882Z,70.90
2019-01-21T20:49:32.543Z,69.90
2019-01-21T20:51:36.228Z,69.40
2019-01-21T20:53:39.934Z,68.90
2019-01-21T20:55:43.616Z,69.30
2019-01-21T20:57:47.385Z,68.20
2019-01-21T20:59:51.060Z,68.40
2019-01-21T21:01:54.730Z,68.30
2019-01-21T21:03:58.567Z,68.30
2019-01-21T21:06:02.223Z,67.50
2019-01-21T21:08:05.911Z,67.40
2019-01-21T21:10:11.675Z,67.30
2019-01-21T21:12:15.411Z,66.70
2019-01-21T21:14:19.146Z,67.00
2019-01-21T21:16:22.826Z,67.00
2019-01-21T21:18:26.541Z,67.50
2019-01-21T21:20:30.220Z,67.40
2019-01-21T21:22:33.871Z,66.70
2019-01-21T21:24:37.555Z,66.20
2019-01-21T21:26:41.251Z,66.30
2019-01-21T21:28:44.961Z,67.10
2019-01-21T21:30:48.617Z,66.80
2019-01-21T21:32:52.401Z,66.10
2019-01-21T21:34:56.465Z,67.50
2019-01-21T21:37:00.134Z,67.00
2019-01-21T21:39:05.267Z,66.70
2019-01-21T21:41:08.967Z,66.70
2019-01-21T21:43:12.624Z,66.40
2019-01-21T21:45:18.142Z,67.60
2019-01-21T21:47:21.894Z,68.00
2019-01-21T21:49:25.556Z,67.50
2019-01-21T21:51:29.279Z,68.50
2019-01-21T21:53:32.938Z,67.80
2019-01-21T21:55:36.713Z,67.40
2019-01-21T21:57:40.748Z,66.90
2019-01-21T21:59:44.466Z,67.00
2019-01-21T22:01:48.190Z,67.10
2019-01-21T22:03:51.911Z,68.50
2019-01-21T22:05:55.618Z,71.10
2019-01-21T22:07:59.292Z,72.70
2019-01-21T22:10:03.030Z,71.60
2019-01-21T22:12:06.711Z,70.90
2019-01-21T22:14:10.358Z,71.30
2019-01-21T22:16:14.146Z,70.10
2019-01-21T22:18:17.845Z,68.50
2019-01-21T22:20:23.414Z,68.30
2019-01-21T22:22:27.116Z,68.70
2019-01-21T22:24:30.747Z,67.40
2019-01-21T22:26:34.432Z,67.50
2019-01-21T22:28:38.261Z,66.20
2019-01-21T22:30:41.925Z,66.10
2019-01-21T22:32:45.622Z,68.20
2019-01-21T22:34:49.299Z,68.30
2019-01-21T22:36:53.017Z,67.60
2019-01-21T22:38:56.730Z,67.00
2019-01-21T22:41:00.479Z,66.90
2019-01-21T22:43:04.418Z,68.40
2019-01-21T22:45:09.786Z,71.90
2019-01-21T22:47:13.466Z,72.30
2019-01-21T22:49:17.148Z,71.60
2019-01-21T22:51:21.758Z,70.70
2019-01-21T22:53:25.518Z,70.10
2019-01-21T22:55:29.473Z,69.90
2019-01-21T22:57:33.242Z,69.50
2019-01-21T22:59:36.901Z,69.40
2019-01-21T23:01:40.617Z,69.00
2019-01-21T23:03:44.295Z,68.70
2019-01-21T23:05:47.980Z,68.30
2019-01-21T23:07:51.662Z,67.70
2019-01-21T23:09:55.330Z,68.10
2019-01-21T23:11:58.997Z,68.00
2019-01-21T23:14:02.684Z,68.40
2019-01-21T23:16:06.344Z,67.90
2019-01-21T23:18:10.416Z,68.00
2019-01-21T23:20:14.081Z,67.40
2019-01-21T23:22:17.771Z,66.30
2019-01-21T23:24:21.531Z,66.20
2019-01-21T23:26:25.202Z,66.60
2019-01-21T23:28:28.913Z,66.50
2019-01-21T23:30:32.583Z,67.40
2019-01-21T23:32:36.253Z,67.10
2019-01-21T23:34:44.164Z,66.60
2019-01-21T23:36:45.398Z,66.50
2019-01-21T23:38:49.094Z,66.70
2019-01-21T23:40:53.628Z,65.90
2019-01-21T23:42:57.376Z,65.90
2019-01-21T23:45:01.159Z,65.90
2019-01-21T23:47:04.826Z,65.70
2019-01-21T23:49:08.513Z,64.30
2019-01-21T23:51:12.216Z,65.30
2019-01-21T23:53:15.880Z,64.90
2019-01-21T23:55:19.849Z,64.90
2019-01-21T23:57:23.498Z,65.00
2019-01-21T23:59:27.246Z,65.30
